Time;durP1;ratioP1;P1;durP2;ratioP2;P2;SDS_P1;SDS_P2;PMS_P1;PMS_P2;Temp;Humidity;BMP_temperature;BMP_pressure;BME280_temperature;BME280_humidity;BME280_pressure;Samples;Min_cycle;Max_cycle;Signal;HPM_P1;HPM_P2
2021/10/31 00:02:09;;;;;;;;;;;12.50;86.40;;;;;;5067705;28;20370;-77
2021/10/31 00:04:35;;;;;;;;;;;12.50;86.50;;;;;;5067968;28;19959;-78
2021/10/31 00:07:00;;;;;;;;;;;12.60;86.70;;;;;;5067839;28;20251;-77
2021/10/31 00:09:26;;;;;;;;;;;12.60;86.80;;;;;;5066647;28;19912;-77
2021/10/31 00:11:51;;;;;;;;;;;12.60;86.80;;;;;;5067812;28;19912;-76
2021/10/31 00:14:17;;;;;;;;;;;12.70;87.00;;;;;;5066569;28;20374;-76
2021/10/31 00:16:42;;;;;;;;;;;12.80;87.10;;;;;;5067858;28;19916;-78
2021/10/31 00:19:08;;;;;;;;;;;12.80;87.10;;;;;;5067835;28;19957;-77
2021/10/31 00:21:34;;;;;;;;;;;12.80;87.20;;;;;;5066365;28;19916;-76
2021/10/31 00:23:59;;;;;;;;;;;12.80;87.20;;;;;;5067822;28;19913;-78
2021/10/31 00:26:25;;;;;;;;;;;12.80;87.40;;;;;;5067783;28;19915;-79
2021/10/31 00:28:51;;;;;;;;;;;12.80;87.50;;;;;;5067672;28;19912;-76
2021/10/31 00:31:16;;;;;;;;;;;12.80;87.70;;;;;;5066250;28;19913;-78
2021/10/31 00:33:42;;;;;;;;;;;12.90;87.90;;;;;;5066516;28;19984;-77
2021/10/31 00:36:07;;;;;;;;;;;12.90;88.20;;;;;;5067712;28;19961;-78
2021/10/31 00:38:33;;;;;;;;;;;12.80;88.50;;;;;;5067592;28;19927;-77
2021/10/31 00:40:58;;;;;;;;;;;12.60;88.80;;;;;;5067455;28;19913;-77
2021/10/31 00:43:24;;;;;;;;;;;12.50;89.50;;;;;;5067462;28;19970;-76
2021/10/31 00:45:50;;;;;;;;;;;12.40;90.00;;;;;;5067646;28;19908;-74
2021/10/31 00:48:16;;;;;;;;;;;12.20;90.40;;;;;;5067410;28;19954;-76
2021/10/31 00:50:42;;;;;;;;;;;12.10;90.80;;;;;;5066111;28;20357;-77
2021/10/31 00:53:07;;;;;;;;;;;12.10;91.30;;;;;;5066152;28;19912;-77
2021/10/31 00:55:33;;;;;;;;;;;12.00;91.50;;;;;;5067428;28;19931;-77
2021/10/31 00:57:59;;;;;;;;;;;11.90;91.80;;;;;;5066242;28;19913;-77
2021/10/31 01:00:25;;;;;;;;;;;11.90;92.20;;;;;;5066345;28;19912;-75
2021/10/31 01:02:50;;;;;;;;;;;11.90;92.80;;;;;;5067320;28;20010;-75
2021/10/31 01:05:19;;;;;;;;;;;11.90;93.40;;;;;;5067544;28;19912;-77
2021/10/31 01:08:13;;;;;;;;;;;11.90;94.00;;;;;;5067538;28;19916;-76
2021/10/31 01:10:38;;;;;;;;;;;11.90;94.10;;;;;;5067386;28;19909;-75
2021/10/31 01:13:07;;;;;;;;;;;11.90;94.40;;;;;;5069638;28;20315;-75
2021/10/31 01:15:32;;;;;;;;;;;11.80;94.60;;;;;;5070992;28;20290;-79
2021/10/31 01:18:33;;;;;;;;;;;11.80;94.70;;;;;;5069796;28;19908;-78
2021/10/31 01:21:17;;;;;;;;;;;11.70;95.10;;;;;;5048045;28;19915;-77
2021/10/31 01:23:43;;;;;;;;;;;11.70;95.80;;;;;;5065944;28;19909;-78
2021/10/31 01:26:12;;;;;;;;;;;11.70;96.00;;;;;;5069702;28;20458;-77
2021/10/31 01:28:48;;;;;;;;;;;11.70;96.20;;;;;;5071189;28;20320;-78
2021/10/31 01:31:28;;;;;;;;;;;11.60;96.60;;;;;;5069345;28;19908;-76
2021/10/31 01:34:02;;;;;;;;;;;11.50;97.00;;;;;;5070811;28;19916;-74
2021/10/31 01:36:51;;;;;;;;;;;11.40;97.40;;;;;;5069349;28;19936;-77
2021/10/31 01:39:16;;;;;;;;;;;11.40;97.90;;;;;;5070567;28;19908;-74
2021/10/31 01:41:46;;;;;;;;;;;11.40;98.10;;;;;;5069013;28;19921;-75
2021/10/31 01:44:30;;;;;;;;;;;11.30;98.30;;;;;;5070498;28;19915;-77
2021/10/31 01:47:17;;;;;;;;;;;11.30;98.50;;;;;;5070517;28;19908;-80
2021/10/31 01:49:55;;;;;;;;;;;11.30;98.70;;;;;;5070311;28;20331;-78
2021/10/31 01:52:23;;;;;;;;;;;11.20;99.10;;;;;;5070579;28;19912;-76
2021/10/31 01:54:57;;;;;;;;;;;11.30;99.40;;;;;;5070448;28;20279;-75
2021/10/31 01:57:23;;;;;;;;;;;11.30;99.70;;;;;;5070489;28;19954;-76
2021/10/31 01:59:53;;;;;;;;;;;11.20;99.90;;;;;;5070293;28;20430;-79
2021/10/31 02:02:19;;;;;;;;;;;11.20;99.90;;;;;;5068781;28;20036;-74
2021/10/31 02:04:46;;;;;;;;;;;11.20;99.90;;;;;;5070519;28;19935;-77
2021/10/31 02:07:12;;;;;;;;;;;11.10;99.90;;;;;;5068758;28;19908;-77
2021/10/31 02:09:39;;;;;;;;;;;11.00;99.90;;;;;;5070093;28;19915;-75
2021/10/31 02:12:05;;;;;;;;;;;10.90;99.90;;;;;;5069898;28;19923;-77
2021/10/31 02:14:32;;;;;;;;;;;10.90;99.90;;;;;;5070033;28;20436;-79
2021/10/31 02:16:59;;;;;;;;;;;10.90;99.90;;;;;;5070010;28;19923;-76
2021/10/31 02:19:29;;;;;;;;;;;10.90;99.90;;;;;;5069948;28;19932;-75
2021/10/31 02:22:00;;;;;;;;;;;10.90;99.90;;;;;;5069767;28;20106;-77
2021/10/31 02:24:26;;;;;;;;;;;10.80;99.90;;;;;;5069225;28;19954;-78
2021/10/31 02:26:51;;;;;;;;;;;10.90;99.90;;;;;;5068908;28;20330;-76
2021/10/31 02:29:17;;;;;;;;;;;10.90;99.90;;;;;;5069776;28;19908;-75
2021/10/31 02:31:43;;;;;;;;;;;10.90;99.90;;;;;;5069631;28;19919;-76
2021/10/31 02:34:08;;;;;;;;;;;10.90;99.90;;;;;;5069873;28;19912;-75
2021/10/31 02:36:35;;;;;;;;;;;10.90;99.90;;;;;;5069582;28;19966;-77
2021/10/31 02:39:02;;;;;;;;;;;10.90;99.90;;;;;;5069620;28;20105;-77
2021/10/31 02:41:28;;;;;;;;;;;11.00;99.90;;;;;;5067895;28;19928;-77
2021/10/31 02:43:54;;;;;;;;;;;11.00;99.90;;;;;;5068272;28;20328;-76
2021/10/31 02:46:20;;;;;;;;;;;11.00;99.90;;;;;;5069412;28;19995;-73
2021/10/31 02:48:45;;;;;;;;;;;11.00;99.90;;;;;;5069543;28;19908;-76
2021/10/31 02:51:29;;;;;;;;;;;11.00;99.90;;;;;;5069619;28;19916;-76
2021/10/31 02:53:58;;;;;;;;;;;11.10;99.90;;;;;;5069461;28;20017;-75
2021/10/31 02:56:34;;;;;;;;;;;11.10;99.90;;;;;;5069419;28;19926;-76
2021/10/31 02:59:10;;;;;;;;;;;11.10;99.90;;;;;;5069789;28;19953;-73
2021/10/31 03:01:36;;;;;;;;;;;11.20;99.90;;;;;;5069089;28;19912;-76
2021/10/31 03:04:02;;;;;;;;;;;11.20;99.90;;;;;;5067738;28;19994;-73
2021/10/31 03:06:28;;;;;;;;;;;11.20;99.90;;;;;;5069167;28;19912;-75
2021/10/31 03:08:53;;;;;;;;;;;11.20;99.90;;;;;;5068894;28;19920;-76
2021/10/31 03:11:19;;;;;;;;;;;11.20;99.90;;;;;;5068823;28;20009;-74
2021/10/31 03:13:44;;;;;;;;;;;11.20;99.90;;;;;;5069087;28;19913;-76
2021/10/31 03:16:10;;;;;;;;;;;11.20;99.90;;;;;;5068851;28;19916;-77
2021/10/31 03:18:36;;;;;;;;;;;11.20;99.90;;;;;;5068800;28;19919;-76
2021/10/31 03:21:02;;;;;;;;;;;11.20;99.90;;;;;;5067433;28;19966;-76
2021/10/31 03:23:28;;;;;;;;;;;11.20;99.90;;;;;;5069105;28;19955;-76
2021/10/31 03:25:54;;;;;;;;;;;11.10;99.90;;;;;;5067169;28;19952;-77
2021/10/31 03:28:19;;;;;;;;;;;11.10;99.90;;;;;;5068870;28;19966;-76
2021/10/31 03:30:45;;;;;;;;;;;11.10;99.90;;;;;;5068434;28;19934;-74
2021/10/31 03:33:12;;;;;;;;;;;11.10;99.90;;;;;;5067104;28;19958;-75
2021/10/31 03:35:38;;;;;;;;;;;11.10;99.90;;;;;;5067565;28;20282;-76
2021/10/31 03:38:04;;;;;;;;;;;11.10;99.90;;;;;;5068478;28;19923;-77
2021/10/31 03:40:29;;;;;;;;;;;11.10;99.90;;;;;;5068300;28;19948;-76
2021/10/31 03:42:55;;;;;;;;;;;11.10;99.90;;;;;;5068080;28;20439;-76
2021/10/31 03:45:21;;;;;;;;;;;11.10;99.90;;;;;;5068137;28;20279;-77
2021/10/31 03:47:48;;;;;;;;;;;11.00;99.90;;;;;;5068353;28;19912;-77
2021/10/31 03:50:14;;;;;;;;;;;10.90;99.90;;;;;;5068202;28;19920;-79
2021/10/31 03:52:41;;;;;;;;;;;10.80;99.90;;;;;;5068159;28;19915;-76
2021/10/31 03:55:07;;;;;;;;;;;10.70;99.90;;;;;;5068290;28;19917;-78
2021/10/31 03:57:34;;;;;;;;;;;10.60;99.90;;;;;;5066954;28;19913;-75
2021/10/31 03:59:59;;;;;;;;;;;10.50;99.90;;;;;;5066641;28;20050;-73
2021/10/31 04:02:25;;;;;;;;;;;10.40;99.90;;;;;;5066751;28;20036;-77
2021/10/31 04:04:50;;;;;;;;;;;10.40;99.90;;;;;;5066906;28;19916;-76
2021/10/31 04:07:16;;;;;;;;;;;10.50;99.90;;;;;;5068053;28;20328;-78
2021/10/31 04:09:42;;;;;;;;;;;10.50;99.90;;;;;;5066938;28;19913;-76
2021/10/31 04:12:07;;;;;;;;;;;10.60;99.90;;;;;;5066798;28;19973;-74
2021/10/31 04:14:33;;;;;;;;;;;10.60;99.90;;;;;;5068003;28;19925;-75
2021/10/31 04:16:58;;;;;;;;;;;10.70;99.90;;;;;;5067995;28;19970;-76
2021/10/31 04:19:24;;;;;;;;;;;10.70;99.90;;;;;;5068063;28;19915;-73
2021/10/31 04:21:50;;;;;;;;;;;10.80;99.90;;;;;;5067827;28;19939;-75
2021/10/31 04:24:17;;;;;;;;;;;10.80;99.90;;;;;;5067937;28;19955;-76
2021/10/31 04:26:43;;;;;;;;;;;10.80;99.90;;;;;;5066657;28;19913;-76
2021/10/31 04:29:09;;;;;;;;;;;10.80;99.90;;;;;;5066611;28;19927;-74
2021/10/31 04:31:34;;;;;;;;;;;10.80;99.90;;;;;;5067861;28;20259;-77
2021/10/31 04:34:00;;;;;;;;;;;10.70;99.90;;;;;;5067943;28;19908;-77
2021/10/31 04:36:26;;;;;;;;;;;10.70;99.90;;;;;;5067708;28;19912;-77
2021/10/31 04:38:55;;;;;;;;;;;10.70;99.90;;;;;;5067754;28;19919;-76
2021/10/31 04:41:21;;;;;;;;;;;10.60;99.90;;;;;;5067575;28;19933;-75
2021/10/31 04:43:46;;;;;;;;;;;10.50;99.90;;;;;;5067701;28;19952;-79
2021/10/31 04:46:12;;;;;;;;;;;10.50;99.90;;;;;;5067007;28;20013;-76
2021/10/31 04:48:37;;;;;;;;;;;10.50;99.90;;;;;;5070340;28;19919;-76
2021/10/31 04:51:03;;;;;;;;;;;10.50;99.90;;;;;;5071526;28;19916;-74
2021/10/31 04:53:29;;;;;;;;;;;10.50;99.90;;;;;;5071599;28;20281;-76
2021/10/31 04:55:54;;;;;;;;;;;10.50;99.90;;;;;;5071482;28;20427;-74
2021/10/31 04:58:20;;;;;;;;;;;10.50;99.90;;;;;;5071493;28;19926;-77
2021/10/31 05:00:45;;;;;;;;;;;10.50;99.90;;;;;;5071353;28;19909;-77
2021/10/31 05:03:11;;;;;;;;;;;10.50;99.90;;;;;;5071233;28;19917;-75
2021/10/31 05:05:37;;;;;;;;;;;10.50;99.90;;;;;;5071368;28;19916;-80
2021/10/31 05:08:04;;;;;;;;;;;10.50;99.90;;;;;;5071234;28;20021;-78
2021/10/31 05:10:30;;;;;;;;;;;10.40;99.90;;;;;;5071173;28;20366;-76
2021/10/31 05:12:55;;;;;;;;;;;10.50;99.90;;;;;;5069849;28;19913;-75
2021/10/31 05:15:21;;;;;;;;;;;10.50;99.90;;;;;;5071134;28;19919;-78
2021/10/31 05:17:48;;;;;;;;;;;10.50;99.90;;;;;;5070938;28;19919;-75
2021/10/31 05:20:14;;;;;;;;;;;10.40;99.90;;;;;;5071128;28;19943;-76
2021/10/31 05:22:40;;;;;;;;;;;10.40;99.90;;;;;;5069531;28;19989;-74
2021/10/31 05:25:06;;;;;;;;;;;10.40;99.90;;;;;;5071017;28;19970;-76
2021/10/31 05:27:33;;;;;;;;;;;10.30;99.90;;;;;;5070949;28;19967;-77
2021/10/31 05:29:59;;;;;;;;;;;10.30;99.90;;;;;;5070852;28;19959;-78
2021/10/31 05:32:31;;;;;;;;;;;10.30;99.90;;;;;;5070688;28;20328;-74
2021/10/31 05:34:56;;;;;;;;;;;10.20;99.90;;;;;;5070698;28;19912;-73
2021/10/31 05:37:22;;;;;;;;;;;10.20;99.90;;;;;;5070787;28;19917;-75
2021/10/31 05:39:48;;;;;;;;;;;10.10;99.90;;;;;;5070708;28;19995;-77
2021/10/31 05:42:14;;;;;;;;;;;10.10;99.90;;;;;;5070311;28;19938;-75
2021/10/31 05:44:39;;;;;;;;;;;10.00;99.90;;;;;;5070633;28;19913;-77
2021/10/31 05:47:05;;;;;;;;;;;10.00;99.90;;;;;;5070642;28;19916;-76
2021/10/31 05:49:31;;;;;;;;;;;10.00;99.90;;;;;;5070648;28;19926;-76
2021/10/31 05:51:56;;;;;;;;;;;10.00;99.90;;;;;;5070313;28;19981;-75
2021/10/31 05:54:22;;;;;;;;;;;10.00;99.90;;;;;;5070433;28;20558;-75
2021/10/31 05:56:48;;;;;;;;;;;10.00;99.90;;;;;;5070384;28;19926;-74
2021/10/31 05:59:13;;;;;;;;;;;10.00;99.90;;;;;;5069354;28;19923;-75
2021/10/31 06:01:39;;;;;;;;;;;10.00;99.90;;;;;;5070100;28;19925;-77
2021/10/31 06:04:05;;;;;;;;;;;10.00;99.90;;;;;;5070140;28;19908;-76
2021/10/31 06:06:30;;;;;;;;;;;10.00;99.90;;;;;;5070075;28;20337;-76
2021/10/31 06:08:56;;;;;;;;;;;10.00;99.90;;;;;;5070182;28;19931;-79
2021/10/31 06:11:21;;;;;;;;;;;10.00;99.90;;;;;;5070158;28;19923;-77
2021/10/31 06:13:47;;;;;;;;;;;10.00;99.90;;;;;;5069966;28;19951;-80
2021/10/31 06:16:13;;;;;;;;;;;9.90;99.90;;;;;;5068756;28;19916;-77
2021/10/31 06:18:39;;;;;;;;;;;9.90;99.90;;;;;;5069887;28;19971;-78
2021/10/31 06:21:05;;;;;;;;;;;9.80;99.90;;;;;;5068514;28;19916;-76
2021/10/31 06:23:30;;;;;;;;;;;9.80;99.90;;;;;;5068777;28;20534;-75
2021/10/31 06:25:56;;;;;;;;;;;9.80;99.90;;;;;;5069792;28;20003;-74
2021/10/31 06:28:21;;;;;;;;;;;9.80;99.90;;;;;;5069897;28;19913;-76
2021/10/31 06:30:47;;;;;;;;;;;9.70;99.90;;;;;;5069813;28;20283;-76
2021/10/31 06:33:12;;;;;;;;;;;9.70;99.90;;;;;;5070052;28;19912;-75
2021/10/31 06:35:38;;;;;;;;;;;9.70;99.90;;;;;;5068466;28;20275;-76
2021/10/31 06:38:04;;;;;;;;;;;9.70;99.90;;;;;;5069620;28;20359;-77
2021/10/31 06:40:29;;;;;;;;;;;9.60;99.90;;;;;;5069489;28;20281;-77
2021/10/31 06:42:55;;;;;;;;;;;9.60;99.90;;;;;;5068934;28;19943;-76
2021/10/31 06:45:21;;;;;;;;;;;9.60;99.90;;;;;;5068138;28;19983;-77
2021/10/31 06:47:46;;;;;;;;;;;9.60;99.90;;;;;;5069463;28;19916;-77
2021/10/31 06:50:12;;;;;;;;;;;9.60;99.90;;;;;;5069146;28;19909;-75
2021/10/31 06:52:38;;;;;;;;;;;9.60;99.90;;;;;;5069158;28;20352;-76
2021/10/31 06:55:05;;;;;;;;;;;9.50;99.90;;;;;;5069268;28;19916;-75
2021/10/31 06:57:31;;;;;;;;;;;9.50;99.90;;;;;;5069175;28;19912;-76
2021/10/31 06:59:57;;;;;;;;;;;9.50;99.90;;;;;;5069075;28;19909;-75
2021/10/31 07:02:22;;;;;;;;;;;9.50;99.90;;;;;;5068985;28;19928;-74
2021/10/31 07:04:48;;;;;;;;;;;9.40;99.90;;;;;;5068963;28;19913;-76
2021/10/31 07:07:14;;;;;;;;;;;9.40;99.90;;;;;;5068992;28;19966;-75
2021/10/31 07:09:39;;;;;;;;;;;9.40;99.90;;;;;;5068667;28;19919;-77
2021/10/31 07:12:05;;;;;;;;;;;9.40;99.90;;;;;;5067483;28;19916;-76
2021/10/31 07:14:31;;;;;;;;;;;9.30;99.90;;;;;;5068803;28;20041;-76
2021/10/31 07:16:56;;;;;;;;;;;9.30;99.90;;;;;;5067578;28;19959;-74
2021/10/31 07:19:22;;;;;;;;;;;9.30;99.90;;;;;;5067769;28;20315;-76
2021/10/31 07:21:47;;;;;;;;;;;9.30;99.90;;;;;;5068644;28;20260;-74
2021/10/31 07:24:13;;;;;;;;;;;9.20;99.90;;;;;;5068848;28;19936;-75
2021/10/31 07:26:39;;;;;;;;;;;9.20;99.90;;;;;;5068675;28;19935;-76
2021/10/31 07:29:08;;;;;;;;;;;9.20;99.90;;;;;;5068685;28;19912;-77
2021/10/31 07:31:36;;;;;;;;;;;9.20;99.90;;;;;;5068426;28;19919;-75
2021/10/31 07:34:02;;;;;;;;;;;9.20;99.90;;;;;;5067162;28;19954;-74
2021/10/31 07:36:27;;;;;;;;;;;9.20;99.90;;;;;;5067237;28;19913;-75
2021/10/31 07:38:53;;;;;;;;;;;9.20;99.90;;;;;;5068654;28;19931;-75
2021/10/31 07:41:20;;;;;;;;;;;9.20;99.90;;;;;;5068210;28;20018;-74
2021/10/31 07:43:45;;;;;;;;;;;9.20;99.90;;;;;;5068235;28;19962;-77
2021/10/31 07:46:11;;;;;;;;;;;9.30;99.90;;;;;;5068520;28;19908;-75
2021/10/31 07:48:36;;;;;;;;;;;9.30;99.90;;;;;;5068260;28;19916;-77
2021/10/31 07:51:03;;;;;;;;;;;9.30;99.90;;;;;;5067023;28;20059;-74
2021/10/31 07:53:29;;;;;;;;;;;9.30;99.90;;;;;;5068355;28;19944;-77
2021/10/31 07:55:55;;;;;;;;;;;9.40;99.90;;;;;;5068306;28;20401;-77
2021/10/31 07:58:24;;;;;;;;;;;9.40;99.90;;;;;;5068343;28;20007;-75
2021/10/31 08:00:49;;;;;;;;;;;9.40;99.90;;;;;;5066959;28;19913;-75
2021/10/31 08:03:16;;;;;;;;;;;9.40;99.90;;;;;;5066565;28;19923;-77
2021/10/31 08:05:43;;;;;;;;;;;9.50;99.90;;;;;;5066794;28;19908;-74
2021/10/31 08:08:08;;;;;;;;;;;9.50;99.90;;;;;;5068035;28;19913;-76
2021/10/31 08:10:34;;;;;;;;;;;9.50;99.90;;;;;;5067847;28;19946;-74
2021/10/31 08:13:00;;;;;;;;;;;9.60;99.90;;;;;;5067551;28;19966;-73
2021/10/31 08:15:26;;;;;;;;;;;9.60;99.90;;;;;;5067727;28;19909;-76
2021/10/31 08:17:51;;;;;;;;;;;9.70;99.90;;;;;;5066832;28;19969;-77
2021/10/31 08:20:17;;;;;;;;;;;9.70;99.90;;;;;;5067978;28;19970;-77
2021/10/31 08:22:44;;;;;;;;;;;9.70;99.90;;;;;;5071211;28;19925;-76
2021/10/31 08:25:10;;;;;;;;;;;9.80;99.90;;;;;;5072416;28;20351;-79
2021/10/31 08:27:35;;;;;;;;;;;9.80;99.90;;;;;;5071910;28;19917;-77
2021/10/31 08:30:02;;;;;;;;;;;9.90;99.90;;;;;;5071790;28;19908;-77
2021/10/31 08:32:28;;;;;;;;;;;10.00;99.90;;;;;;5071626;28;19958;-78
2021/10/31 08:34:54;;;;;;;;;;;10.20;99.90;;;;;;5070508;28;19952;-74
2021/10/31 08:37:20;;;;;;;;;;;10.80;99.90;;;;;;5071656;28;19963;-74
2021/10/31 08:39:45;;;;;;;;;;;11.30;99.90;;;;;;5071629;28;19940;-75
2021/10/31 08:42:12;;;;;;;;;;;12.00;99.90;;;;;;5069942;28;19935;-74
2021/10/31 08:44:38;;;;;;;;;;;12.40;99.90;;;;;;5071411;28;19911;-74
2021/10/31 08:47:04;;;;;;;;;;;12.30;99.90;;;;;;5071291;28;19913;-77
2021/10/31 08:49:30;;;;;;;;;;;12.10;99.40;;;;;;5071351;28;19917;-76
2021/10/31 08:51:55;;;;;;;;;;;11.80;99.40;;;;;;5070081;28;19913;-75
2021/10/31 08:54:21;;;;;;;;;;;11.60;99.50;;;;;;5070048;28;20003;-77
2021/10/31 08:56:47;;;;;;;;;;;11.30;99.70;;;;;;5070285;28;20014;-76
2021/10/31 08:59:13;;;;;;;;;;;11.30;99.90;;;;;;5070054;28;19982;-75
2021/10/31 09:01:39;;;;;;;;;;;11.70;99.90;;;;;;5069570;28;19923;-77
2021/10/31 09:04:05;;;;;;;;;;;12.60;99.90;;;;;;5070969;28;20319;-77
2021/10/31 09:06:30;;;;;;;;;;;13.80;99.90;;;;;;5071011;28;19916;-74
2021/10/31 09:08:56;;;;;;;;;;;14.70;99.90;;;;;;5070882;28;19912;-75
2021/10/31 09:11:22;;;;;;;;;;;15.50;99.90;;;;;;5070552;28;19917;-76
2021/10/31 09:13:51;;;;;;;;;;;16.20;99.90;;;;;;5069810;28;19913;-78
2021/10/31 09:16:17;;;;;;;;;;;16.70;99.90;;;;;;5069254;28;19919;-75
2021/10/31 09:18:42;;;;;;;;;;;17.10;99.90;;;;;;5070619;28;19916;-76
2021/10/31 09:21:08;;;;;;;;;;;17.50;99.90;;;;;;5070971;28;19912;-80
2021/10/31 09:23:34;;;;;;;;;;;18.00;99.90;;;;;;5070627;28;19927;-75
2021/10/31 09:26:00;;;;;;;;;;;18.30;98.70;;;;;;5068670;28;20363;-77
2021/10/31 09:28:26;;;;;;;;;;;18.00;97.80;;;;;;5070382;28;20373;-77
2021/10/31 09:30:51;;;;;;;;;;;17.60;97.40;;;;;;5070271;28;19927;-75
2021/10/31 09:33:17;;;;;;;;;;;17.50;98.60;;;;;;5068916;28;20030;-78
2021/10/31 09:35:46;;;;;;;;;;;18.00;99.30;;;;;;5070179;28;19940;-76
2021/10/31 09:38:12;;;;;;;;;;;18.50;99.00;;;;;;5070684;28;19978;-75
2021/10/31 09:40:38;;;;;;;;;;;18.90;98.90;;;;;;5070303;28;20355;-77
2021/10/31 09:43:04;;;;;;;;;;;19.40;99.10;;;;;;5069534;28;20346;-74
2021/10/31 09:45:30;;;;;;;;;;;20.00;98.60;;;;;;5069527;28;19915;-75
2021/10/31 09:48:07;;;;;;;;;;;20.30;97.50;;;;;;5070009;28;20297;-78
2021/10/31 09:50:34;;;;;;;;;;;20.50;97.50;;;;;;5069928;28;19944;-75
2021/10/31 09:53:02;;;;;;;;;;;20.90;97.60;;;;;;5069212;28;19915;-75
2021/10/31 09:55:28;;;;;;;;;;;21.20;96.80;;;;;;5067921;28;19955;-77
2021/10/31 09:57:54;;;;;;;;;;;21.40;96.70;;;;;;5069175;28;19948;-78
2021/10/31 10:00:32;;;;;;;;;;;21.40;95.50;;;;;;5069342;28;19909;-78
2021/10/31 10:05:27;;;;;;;;;;;21.70;96.10;;;;;;5069607;28;20417;-77
2021/10/31 10:08:12;;;;;;;;;;;21.90;95.80;;;;;;5069245;28;19916;-77
2021/10/31 10:10:45;;;;;;;;;;;22.10;96.00;;;;;;5069199;28;20270;-78
2021/10/31 10:13:18;;;;;;;;;;;22.20;95.40;;;;;;5068994;28;19916;-77
2021/10/31 10:15:44;;;;;;;;;;;22.30;95.40;;;;;;5067984;28;19908;-77
2021/10/31 10:18:10;;;;;;;;;;;22.60;95.30;;;;;;5067549;28;19931;-76
2021/10/31 10:20:37;;;;;;;;;;;22.70;94.90;;;;;;5068765;28;19908;-79
2021/10/31 10:23:10;;;;;;;;;;;22.90;94.40;;;;;;5067070;28;19917;-77
2021/10/31 10:25:42;;;;;;;;;;;22.70;94.50;;;;;;5068679;28;20296;-76
2021/10/31 10:28:25;;;;;;;;;;;22.80;94.90;;;;;;5068717;28;19970;-77
2021/10/31 10:30:50;;;;;;;;;;;22.90;94.40;;;;;;5067622;28;19908;-77
2021/10/31 10:33:20;;;;;;;;;;;23.10;94.70;;;;;;5068893;28;19909;-75
2021/10/31 10:35:46;;;;;;;;;;;23.30;95.00;;;;;;5068554;28;20019;-75
2021/10/31 10:38:16;;;;;;;;;;;23.60;95.00;;;;;;5067450;28;19913;-79
2021/10/31 10:40:41;;;;;;;;;;;23.90;94.60;;;;;;5068690;28;19909;-75
2021/10/31 10:43:07;;;;;;;;;;;23.90;94.10;;;;;;5068004;28;20235;-75
2021/10/31 10:45:33;;;;;;;;;;;23.90;94.20;;;;;;5066412;28;19998;-74
2021/10/31 10:48:02;;;;;;;;;;;24.00;93.60;;;;;;5068311;28;20336;-76
2021/10/31 10:50:35;;;;;;;;;;;23.90;93.20;;;;;;5067804;28;19924;-77
2021/10/31 10:53:01;;;;;;;;;;;23.70;92.70;;;;;;5067871;28;19908;-76
2021/10/31 10:55:30;;;;;;;;;;;23.40;92.20;;;;;;5067878;28;20003;-75
2021/10/31 10:58:00;;;;;;;;;;;22.60;91.70;;;;;;5066646;28;19923;-74
2021/10/31 11:00:34;;;;;;;;;;;21.60;91.10;;;;;;5067923;28;19909;-77
2021/10/31 11:03:01;;;;;;;;;;;20.60;91.20;;;;;;5067858;28;19951;-77
2021/10/31 11:05:28;;;;;;;;;;;19.70;91.30;;;;;;5067836;28;19916;-78
2021/10/31 11:07:54;;;;;;;;;;;19.40;93.20;;;;;;5066286;28;20159;-77
2021/10/31 11:10:21;;;;;;;;;;;19.90;94.20;;;;;;5067742;28;19957;-77
2021/10/31 11:12:48;;;;;;;;;;;20.40;94.30;;;;;;5067271;28;20012;-77
2021/10/31 11:15:21;;;;;;;;;;;20.90;93.90;;;;;;5067474;28;20065;-77
2021/10/31 11:17:48;;;;;;;;;;;21.40;94.20;;;;;;5067817;28;19974;-79
2021/10/31 11:20:15;;;;;;;;;;;21.90;94.40;;;;;;5067669;28;19995;-75
2021/10/31 11:22:42;;;;;;;;;;;22.10;93.60;;;;;;5067080;28;19988;-74
2021/10/31 11:25:09;;;;;;;;;;;22.20;93.60;;;;;;5067242;28;19909;-76
2021/10/31 11:27:35;;;;;;;;;;;22.00;92.80;;;;;;5067251;28;19921;-76
2021/10/31 11:30:01;;;;;;;;;;;21.40;90.60;;;;;;5066133;28;19915;-78
2021/10/31 11:32:27;;;;;;;;;;;20.80;90.40;;;;;;5065226;28;19931;-77
2021/10/31 11:34:57;;;;;;;;;;;20.40;90.80;;;;;;5067230;28;19912;-76
2021/10/31 11:37:26;;;;;;;;;;;20.00;90.90;;;;;;5067476;28;20325;-76
2021/10/31 11:39:54;;;;;;;;;;;19.50;90.00;;;;;;5066078;28;19999;-78
2021/10/31 11:42:20;;;;;;;;;;;18.90;89.80;;;;;;5067019;28;19920;-75
2021/10/31 11:45:03;;;;;;;;;;;18.30;90.10;;;;;;5066222;28;19913;-76
2021/10/31 11:47:32;;;;;;;;;;;17.80;90.60;;;;;;5067261;28;19955;-77
2021/10/31 11:50:04;;;;;;;;;;;17.40;91.10;;;;;;5067569;28;20398;-78
2021/10/31 11:52:48;;;;;;;;;;;17.10;91.20;;;;;;5067408;28;19908;-78
2021/10/31 11:55:29;;;;;;;;;;;16.80;91.60;;;;;;5065586;28;20305;-74
2021/10/31 11:58:02;;;;;;;;;;;16.70;92.00;;;;;;5066595;28;19960;-76
2021/10/31 12:00:30;;;;;;;;;;;16.50;92.20;;;;;;5067166;28;20118;-76
2021/10/31 12:02:58;;;;;;;;;;;16.30;92.40;;;;;;5067090;28;19991;-77
2021/10/31 12:05:38;;;;;;;;;;;16.20;92.50;;;;;;5067558;28;19909;-78
2021/10/31 12:08:08;;;;;;;;;;;16.20;92.80;;;;;;5067520;28;19908;-75
2021/10/31 12:10:34;;;;;;;;;;;16.20;92.10;;;;;;5067504;28;20398;-76
2021/10/31 12:13:20;;;;;;;;;;;16.10;91.20;;;;;;5066240;28;19974;-78
2021/10/31 12:15:58;;;;;;;;;;;15.80;91.10;;;;;;5066754;28;19908;-77
2021/10/31 12:18:42;;;;;;;;;;;15.50;91.20;;;;;;5066953;28;19912;-78
2021/10/31 12:21:18;;;;;;;;;;;15.40;91.40;;;;;;5065741;28;20290;-77
2021/10/31 12:23:52;;;;;;;;;;;15.50;91.70;;;;;;5067184;28;19912;-77
2021/10/31 12:26:18;;;;;;;;;;;15.50;91.40;;;;;;5065609;28;19921;-76
2021/10/31 12:28:44;;;;;;;;;;;15.50;91.40;;;;;;5066995;28;19908;-78
2021/10/31 12:31:36;;;;;;;;;;;15.50;91.60;;;;;;5066960;28;20445;-78
2021/10/31 12:34:13;;;;;;;;;;;15.50;91.60;;;;;;5063561;28;19908;-76
2021/10/31 12:36:41;;;;;;;;;;;15.70;91.90;;;;;;5067141;28;19916;-78
2021/10/31 12:39:29;;;;;;;;;;;16.30;92.30;;;;;;5066905;28;19997;-78
2021/10/31 12:42:10;;;;;;;;;;;17.00;92.30;;;;;;5066438;28;19925;-78
2021/10/31 12:44:36;;;;;;;;;;;17.40;91.60;;;;;;5066682;28;19912;-76
2021/10/31 12:47:18;;;;;;;;;;;17.50;91.60;;;;;;5065285;28;20407;-74
2021/10/31 12:49:44;;;;;;;;;;;17.60;91.20;;;;;;5065420;28;20281;-78
2021/10/31 12:52:26;;;;;;;;;;;17.50;90.60;;;;;;5065701;28;20045;-74
2021/10/31 12:55:03;;;;;;;;;;;17.40;90.60;;;;;;5066665;28;20236;-77
2021/10/31 12:57:29;;;;;;;;;;;17.10;90.20;;;;;;5066548;28;19925;-74
2021/10/31 12:59:56;;;;;;;;;;;16.80;90.10;;;;;;5066153;28;19920;-76
2021/10/31 13:02:24;;;;;;;;;;;16.50;90.40;;;;;;5066298;28;19920;-75
2021/10/31 13:04:49;;;;;;;;;;;16.30;90.20;;;;;;5066578;28;19908;-77
2021/10/31 13:07:15;;;;;;;;;;;16.10;90.00;;;;;;5066085;28;20019;-76
2021/10/31 13:09:41;;;;;;;;;;;15.90;89.40;;;;;;5070269;28;19935;-76
2021/10/31 13:12:21;;;;;;;;;;;15.80;88.10;;;;;;5069047;28;19936;-76
2021/10/31 13:14:46;;;;;;;;;;;15.50;87.60;;;;;;5069703;28;19922;-76
2021/10/31 13:17:12;;;;;;;;;;;15.20;87.70;;;;;;5069799;28;19913;-77
2021/10/31 13:19:38;;;;;;;;;;;15.10;88.10;;;;;;5069779;28;19970;-76
2021/10/31 13:22:05;;;;;;;;;;;14.90;88.40;;;;;;5069468;28;20286;-76
2021/10/31 13:24:35;;;;;;;;;;;14.80;89.00;;;;;;5069623;28;19993;-78
2021/10/31 13:27:02;;;;;;;;;;;14.90;89.70;;;;;;5069638;28;19909;-75
2021/10/31 13:29:40;;;;;;;;;;;14.90;89.80;;;;;;5069365;28;19912;-76
2021/10/31 13:32:10;;;;;;;;;;;14.90;89.90;;;;;;5068112;28;19909;-78
2021/10/31 13:34:38;;;;;;;;;;;15.00;89.90;;;;;;5068416;28;19908;-76
2021/10/31 13:37:05;;;;;;;;;;;14.90;89.60;;;;;;5070744;28;20007;-77
2021/10/31 13:39:32;;;;;;;;;;;14.80;89.70;;;;;;5070206;28;20322;-78
2021/10/31 13:42:00;;;;;;;;;;;14.80;89.70;;;;;;5068369;28;20402;-77
2021/10/31 13:44:26;;;;;;;;;;;14.80;89.80;;;;;;5052288;28;20314;-75
2021/10/31 13:47:11;;;;;;;;;;;14.70;89.30;;;;;;5069825;28;19924;-78
2021/10/31 13:49:41;;;;;;;;;;;14.60;89.30;;;;;;5069752;28;19915;-78
2021/10/31 13:52:07;;;;;;;;;;;14.60;89.70;;;;;;5069638;28;19913;-75
2021/10/31 13:54:32;;;;;;;;;;;14.40;89.20;;;;;;5069778;28;20026;-79
2021/10/31 13:56:58;;;;;;;;;;;14.30;89.50;;;;;;5069752;28;20015;-76
2021/10/31 13:59:25;;;;;;;;;;;14.20;89.70;;;;;;5069694;28;19912;-79
2021/10/31 14:01:51;;;;;;;;;;;14.20;90.00;;;;;;5069189;28;20278;-75
2021/10/31 14:04:18;;;;;;;;;;;14.10;90.10;;;;;;5069511;28;19921;-77
2021/10/31 14:06:44;;;;;;;;;;;14.10;90.20;;;;;;5069512;28;19916;-75
2021/10/31 14:09:10;;;;;;;;;;;14.10;90.20;;;;;;5069393;28;19953;-76
2021/10/31 14:11:55;;;;;;;;;;;14.10;90.30;;;;;;5069239;28;20008;-74
2021/10/31 14:14:36;;;;;;;;;;;14.20;90.40;;;;;;5069423;28;19915;-78
2021/10/31 14:17:16;;;;;;;;;;;14.20;90.40;;;;;;5067803;28;19915;-76
2021/10/31 14:19:43;;;;;;;;;;;14.20;90.30;;;;;;5068299;28;19908;-75
2021/10/31 14:22:09;;;;;;;;;;;14.00;90.20;;;;;;5069241;28;19955;-76
2021/10/31 14:24:37;;;;;;;;;;;13.90;90.20;;;;;;5068193;28;20449;-75
2021/10/31 14:27:20;;;;;;;;;;;13.80;90.40;;;;;;5067919;28;19912;-77